Cincinnati, Ohio
Traffic Map
Current Weather Conditions
Cincinnati, Ohio
Scattered Clouds
Scattered Clouds
91°
Feels Like: 95°
Wind Chill: 91° Ceiling: Unl
Heat Index: 95° Visibility: 10mi
Dew Point: 68° Wind: 7mph
Humidity: 47% Direction: 260° (W)
Pressure: 30.03in Gusts: 0mph
Raw Report DataKLUK 222053Z 26006KT 10SM SCT060 33/20 A3003 RMK AO2 SLP166 T03280200 58010
Traffic Incident Summary
Active as of:
Severity:
Category:
InformationThere was an issue retrieving the traffic information for this location. Please try a different location or try again shortly.
Advertisements
Track Severe Weather on mobile